This is the latest recevied weather packets stored in our database for station/object N2WH. If no packets are shown the sender has not sent any weather packets the latest 10 day(s).
| Time | Temp. | Humidity | Pressure | Rain* | Wind** | Luminosity | Snow |
|---|---|---|---|---|---|---|---|
| 1777603004 | 10.56° C | 68% | 1011.6 hPa | 0 mm | - | 0 W/m² | - |
| 1777602700 | 10.56° C | 68% | 1011.6 hPa | 0 mm | - | 0 W/m² | - |
| 1777602395 | 11.11° C | 68% | 1011.4 hPa | 0 mm | - | 0 W/m² | - |
| 1777601787 | 11.11° C | 68% | 1011.4 hPa | 0 mm | - | 0 W/m² | - |
| 1777600267 | 11.11° C | 67% | 1011.3 hPa | 0 mm | - | 0 W/m² | - |
| 1777585373 | 13.89° C | 66% | 1008.4 hPa | 0 mm | - | 91 W/m² | - |
| 1777584159 | 14.44° C | 65% | 1008.4 hPa | 0 mm | - | 91 W/m² | - |
| 1777583554 | 14.44° C | 64% | 1008.1 hPa | 0 mm | - | 127 W/m² | - |
| 1777580218 | 13.89° C | 69% | 1007.8 hPa | 0 mm | - | 68 W/m² | - |
| 1777579915 | 14.44° C | 71% | 1007.6 hPa | 0 mm | - | 79 W/m² | - |
| 1777579611 | 14.44° C | 69% | 1007.4 hPa | 0 mm | - | 97 W/m² | - |
| 1777578096 | 13.89° C | 73% | 1007.5 hPa | 0 mm | - | 120 W/m² | - |
| 1777577792 | 13.89° C | 73% | 1007.7 hPa | 0 mm | - | 104 W/m² | - |
| 1777577488 | 13.89° C | 74% | 1007.7 hPa | 0 mm | - | 110 W/m² | - |
| 1777577185 | 13.89° C | 74% | 1007.7 hPa | 0 mm | - | 127 W/m² | - |
| 1777576881 | 13.33° C | 75% | 1007.7 hPa | 0 mm | - | 108 W/m² | - |
| 1777576581 | 13.33° C | 75% | 1007.8 hPa | 0 mm | - | 74 W/m² | - |
| 1777575365 | 14.44° C | 75% | 1007.6 hPa | 0 mm | - | 65 W/m² | - |
| 1777574456 | 14.44° C | 72% | 1007.7 hPa | 0 mm | - | 232 W/m² | - |
| 1777574156 | 14.44° C | 76% | 1007.6 hPa | 0 mm | - | 250 W/m² | - |
| 1777572940 | 13.89° C | 78% | 1007.7 hPa | 0 mm | - | 157 W/m² | - |
| 1777572635 | 13.33° C | 77% | 1008 hPa | 0 mm | - | 133 W/m² | - |
| 1777572330 | 13.33° C | 78% | 1007.8 hPa | 0 mm | - | 163 W/m² | - |
| 1777571120 | 13.33° C | 79% | 1007.7 hPa | 0 mm | - | 104 W/m² | - |
| 1777569904 | 13.89° C | 82% | 1007.7 hPa | 0 mm | - | 154 W/m² | - |
* Rain latest hour (hover to see other rain measurements)
** Current wind speed in m/s (hover to see current wind gust speed)